Time;durP1;ratioP1;P1;durP2;ratioP2;P2;SDS_P1;SDS_P2;PMS_P1;PMS_P2;Temp;Humidity;BMP_temperature;BMP_pressure;BME280_temperature;BME280_humidity;BME280_pressure;Samples;Min_cycle;Max_cycle;Signal;HPM_P1;HPM_P2
2021/01/05 00:04:33;;;;;;;5.37;3.40;;;;;;;1.24;100.00;98706.80;3684437;79;396082;-73
2021/01/05 00:09:55;;;;;;;1.03;0.93;;;;;;;1.28;100.00;98700.13;3677784;79;391867;-73
2021/01/05 00:15:18;;;;;;;0.80;0.50;;;;;;;1.24;100.00;98701.38;3680919;77;383587;-73
2021/01/05 00:20:39;;;;;;;3.70;1.90;;;;;;;1.36;100.00;98697.81;3689778;79;396325;-73
2021/01/05 00:26:00;;;;;;;2.63;2.43;;;;;;;1.36;100.00;98703.23;3684176;79;396126;-73
2021/01/05 00:31:21;;;;;;;4.33;2.13;;;;;;;1.32;100.00;98705.85;3681308;77;396139;-73
2021/01/05 00:36:42;;;;;;;4.73;1.30;;;;;;;1.41;100.00;98700.28;3677073;77;396131;-73
2021/01/05 00:42:04;;;;;;;2.90;1.40;;;;;;;1.34;100.00;98702.78;3677643;77;387816;-73
2021/01/05 00:47:25;;;;;;;1.00;0.87;;;;;;;1.44;100.00;98703.63;3678171;79;392147;-73
2021/01/05 00:52:46;;;;;;;1.90;1.80;;;;;;;1.28;100.00;98706.34;3677376;77;396429;-73
2021/01/05 00:58:08;;;;;;;3.40;1.90;;;;;;;1.38;100.00;98705.80;3677365;77;393999;-73
2021/01/05 01:03:29;;;;;;;3.03;1.00;;;;;;;1.26;100.00;98707.25;3677431;80;383595;-74
2021/01/05 01:08:50;;;;;;;2.40;0.90;;;;;;;1.32;100.00;98709.92;3678134;79;389819;-73
2021/01/05 01:14:12;;;;;;;0.80;0.40;;;;;;;1.37;100.00;98711.58;3678345;77;383572;-73
2021/01/05 01:19:33;;;;;;;2.70;1.67;;;;;;;1.29;100.00;98711.18;3676908;78;396348;-73
2021/01/05 01:24:55;;;;;;;2.57;1.63;;;;;;;1.28;100.00;98715.83;3675279;79;393988;-73
2021/01/05 01:30:17;;;;;;;1.90;1.03;;;;;;;1.31;100.00;98716.47;3677676;77;389005;-73
2021/01/05 01:35:38;;;;;;;1.57;1.37;;;;;;;1.35;100.00;98718.72;3677794;78;383824;-73
2021/01/05 01:40:59;;;;;;;7.70;1.80;;;;;;;1.29;100.00;98714.70;3677070;79;395033;-73
2021/01/05 01:46:20;;;;;;;1.40;1.03;;;;;;;1.33;100.00;98716.91;3693546;79;389833;-73
2021/01/05 01:51:43;;;;;;;1.43;1.33;;;;;;;1.35;100.00;98724.13;3677235;79;396395;-73
2021/01/05 01:57:24;;;;;;;4.33;2.20;;;;;;;1.30;100.00;98713.53;3693943;79;383791;-73
2021/01/05 02:03:03;;;;;;;5.30;0.90;;;;;;;1.32;100.00;98711.27;3681119;78;383592;-73
2021/01/05 02:08:42;;;;;;;0.90;0.77;;;;;;;1.30;100.00;98710.83;3678220;80;383840;-73
2021/01/05 02:14:35;;;;;;;1.83;1.43;;;;;;;1.31;100.00;98702.92;3677016;79;393987;-74
2021/01/05 02:19:59;;;;;;;1.10;1.00;;;;;;;1.34;100.00;98702.23;3676884;78;390224;-73
2021/01/05 02:25:29;;;;;;;2.87;2.27;;;;;;;1.51;100.00;98696.48;3676804;79;395033;-73
2021/01/05 02:30:53;;;;;;;1.73;1.63;;;;;;;1.41;100.00;98692.16;3669867;80;392951;-73
2021/01/05 02:36:52;;;;;;;0.90;0.63;;;;;;;1.37;100.00;98697.48;3678167;80;383828;-73
2021/01/05 02:42:22;;;;;;;1.17;0.60;;;;;;;1.37;100.00;98698.03;3677425;80;389861;-73
2021/01/05 02:47:58;;;;;;;5.90;1.00;;;;;;;1.38;100.00;98705.03;3677096;79;393978;-73
2021/01/05 02:53:38;;;;;;;1.27;1.17;;;;;;;1.47;100.00;98690.17;3677602;80;383867;-73
2021/01/05 02:59:17;;;;;;;1.13;1.00;;;;;;;1.47;100.00;98683.39;3659465;80;393954;-73
2021/01/05 03:04:39;;;;;;;3.00;0.93;;;;;;;1.41;100.00;98686.16;3673865;79;394032;-73
2021/01/05 03:10:21;;;;;;;1.40;0.87;;;;;;;1.44;100.00;98681.41;3677594;79;394028;-74
2021/01/05 03:16:00;;;;;;;2.60;1.40;;;;;;;1.32;100.00;98682.82;3677212;77;383571;-74
2021/01/05 03:21:24;;;;;;;14.93;1.60;;;;;;;1.26;100.00;98678.80;3676704;78;395056;-74
2021/01/05 03:26:49;;;;;;;1.27;1.17;;;;;;;1.32;100.00;98682.82;3677627;80;383990;-74
2021/01/05 03:32:11;;;;;;;2.13;2.03;;;;;;;1.34;100.00;98687.33;3677903;79;383901;-74
2021/01/05 03:37:32;;;;;;;1.40;1.13;;;;;;;1.36;100.00;98677.49;3677347;77;394003;-74
2021/01/05 03:42:53;;;;;;;0.90;0.80;;;;;;;1.24;100.00;98672.94;3678377;79;383579;-74
2021/01/05 03:48:14;;;;;;;1.40;1.30;;;;;;;1.25;100.00;98679.94;3677642;79;393267;-74
2021/01/05 03:53:35;;;;;;;1.53;1.33;;;;;;;1.35;100.00;98672.66;3677773;79;394007;-73
2021/01/05 03:58:56;;;;;;;2.03;0.90;;;;;;;1.37;100.00;98673.09;3677527;77;388018;-73
2021/01/05 04:04:20;;;;;;;2.00;1.53;;;;;;;1.33;100.00;98674.91;3687493;79;396360;-73
2021/01/05 04:09:41;;;;;;;1.33;1.23;;;;;;;1.38;100.00;98673.29;3704547;79;385623;-73
2021/01/05 04:15:04;;;;;;;1.70;1.50;;;;;;;1.40;100.00;98672.38;3677543;78;387753;-74
2021/01/05 04:20:27;;;;;;;1.00;0.60;;;;;;;1.35;100.00;98669.14;3686708;78;383574;-74
2021/01/05 04:25:50;;;;;;;3.00;1.80;;;;;;;1.43;100.00;98660.85;3701473;79;396166;-74
2021/01/05 04:31:11;;;;;;;2.47;2.30;;;;;;;1.39;100.00;98675.45;3679349;78;396115;-73
2021/01/05 04:36:32;;;;;;;3.00;2.80;;;;;;;1.42;100.00;98672.83;3677035;77;391952;-73
2021/01/05 04:42:22;;;;;;;2.17;1.90;;;;;;;1.44;100.00;98676.53;3676735;80;396350;-74
2021/01/05 04:47:58;;;;;;;7.10;1.67;;;;;;;1.47;100.00;98674.48;3679017;78;396434;-73
2021/01/05 04:53:25;;;;;;;2.70;1.30;;;;;;;1.44;100.00;98680.05;3696925;78;394269;-74
2021/01/05 04:58:58;;;;;;;4.00;1.03;;;;;;;1.43;100.00;98681.17;3723369;77;383592;-74
2021/01/05 05:04:41;;;;;;;3.27;1.53;;;;;;;1.39;100.00;98685.70;3750456;77;396125;-75
2021/01/05 05:10:17;;;;;;;9.60;2.80;;;;;;;1.39;100.00;98685.70;3730570;78;396044;-73
2021/01/05 05:16:07;;;;;;;2.30;1.23;;;;;;;1.42;100.00;98678.80;3717570;77;396106;-74
2021/01/05 05:21:40;;;;;;;2.50;2.30;;;;;;;1.52;100.00;98686.41;3776578;77;396061;-74
2021/01/05 05:27:21;;;;;;;1.53;0.73;;;;;;;1.52;100.00;98691.28;3739091;77;391852;-74
2021/01/05 05:32:48;;;;;;;1.40;1.03;;;;;;;1.47;100.00;98695.59;3748839;77;383569;-73
2021/01/05 05:38:27;;;;;;;1.40;0.83;;;;;;;1.45;100.00;98699.79;3748917;77;393962;-74
2021/01/05 05:44:04;;;;;;;3.50;3.30;;;;;;;1.40;100.00;98707.61;3692167;77;393944;-74
2021/01/05 05:49:42;;;;;;;0.90;0.80;;;;;;;1.39;100.00;98706.61;3659608;78;383544;-74
2021/01/05 05:55:07;;;;;;;1.47;1.10;;;;;;;1.36;100.00;98706.74;3652893;78;389852;-74
2021/01/05 06:00:40;;;;;;;1.73;0.80;;;;;;;1.39;100.00;98707.39;3662020;78;393997;-74
2021/01/05 06:06:01;;;;;;;4.70;2.80;;;;;;;1.39;100.00;98717.45;3742855;76;393963;-75
2021/01/05 06:11:22;;;;;;;1.80;1.60;;;;;;;1.43;100.00;98716.95;3743162;76;391912;-74
2021/01/05 06:16:46;;;;;;;1.73;1.63;;;;;;;1.44;100.00;98719.34;3747840;76;383844;-75
2021/01/05 06:22:06;;;;;;;1.57;1.43;;;;;;;1.53;100.00;98725.94;3741906;77;396341;-75
2021/01/05 06:27:27;;;;;;;1.83;1.23;;;;;;;1.61;100.00;98723.07;3746247;77;396380;-75
2021/01/05 06:32:49;;;;;;;2.43;2.10;;;;;;;1.60;100.00;98726.33;3739811;77;387693;-75
2021/01/05 06:38:10;;;;;;;6.10;1.23;;;;;;;1.64;100.00;98734.55;3732335;77;393993;-74
2021/01/05 06:43:31;;;;;;;1.50;1.40;;;;;;;1.63;100.00;98728.91;3676517;78;391963;-74
2021/01/05 06:48:52;;;;;;;1.47;1.37;;;;;;;1.66;100.00;98726.86;3684481;78;387713;-74
2021/01/05 06:54:14;;;;;;;2.37;1.97;;;;;;;1.59;100.00;98734.23;3651246;79;394055;-74
2021/01/05 06:59:36;;;;;;;1.40;1.30;;;;;;;1.60;100.00;98731.75;3682982;78;383868;-75
2021/01/05 07:04:57;;;;;;;3.73;1.03;;;;;;;1.61;100.00;98733.91;3677394;79;396383;-74
2021/01/05 07:10:20;;;;;;;1.00;0.90;;;;;;;1.64;100.00;98739.97;3680123;78;383582;-74
2021/01/05 07:15:41;;;;;;;1.00;0.83;;;;;;;1.69;100.00;98741.09;3688310;78;389919;-74
2021/01/05 07:21:03;;;;;;;4.80;2.90;;;;;;;1.67;100.00;98742.00;3670404;78;396039;-74
2021/01/05 07:26:24;;;;;;;1.03;0.73;;;;;;;1.73;100.00;98744.11;3771581;73;385939;-74
2021/01/05 07:31:46;;;;;;;1.00;0.90;;;;;;;1.65;100.00;98759.17;3808713;76;383836;-74
2021/01/05 07:37:11;;;;;;;2.17;1.37;;;;;;;1.69;100.00;98751.34;3807181;74;396172;-74
2021/01/05 07:42:33;;;;;;;3.47;1.60;;;;;;;1.67;100.00;98760.98;3808800;72;396321;-75
2021/01/05 07:47:56;;;;;;;1.20;0.93;;;;;;;1.72;100.00;98764.77;3808039;76;390053;-74
2021/01/05 07:53:17;;;;;;;1.10;1.00;;;;;;;1.70;100.00;98765.68;3807577;76;388014;-75
2021/01/05 07:58:38;;;;;;;5.13;1.63;;;;;;;1.73;100.00;98767.70;3807287;74;389838;-74
2021/01/05 08:03:59;;;;;;;0.90;0.60;;;;;;;1.70;100.00;98762.97;3808983;77;383905;-74
2021/01/05 08:09:21;;;;;;;4.10;1.13;;;;;;;1.68;100.00;98772.81;3807711;76;393988;-75
2021/01/05 08:14:43;;;;;;;1.00;0.70;;;;;;;1.67;100.00;98782.08;3808429;76;383847;-75
2021/01/05 08:20:04;;;;;;;2.37;2.00;;;;;;;1.70;100.00;98784.11;3807877;77;392105;-76
2021/01/05 08:25:26;;;;;;;4.03;1.67;;;;;;;1.64;100.00;98790.13;3807457;77;392936;-75
2021/01/05 08:30:47;;;;;;;1.13;1.03;;;;;;;1.67;100.00;98789.44;3807033;77;383595;-75
2021/01/05 08:36:09;;;;;;;1.73;1.60;;;;;;;1.72;100.00;98789.17;3807706;76;394036;-75
2021/01/05 08:41:30;;;;;;;1.53;1.37;;;;;;;1.73;100.00;98790.75;3806585;77;396080;-75
2021/01/05 08:46:53;;;;;;;2.60;1.43;;;;;;;1.71;100.00;98799.80;3806432;77;394015;-75
2021/01/05 08:52:16;;;;;;;2.93;1.47;;;;;;;1.74;100.00;98805.89;3807350;74;396119;-74
2021/01/05 08:57:37;;;;;;;1.40;1.10;;;;;;;1.73;100.00;98808.38;3808217;77;393992;-74
2021/01/05 09:02:58;;;;;;;1.23;0.93;;;;;;;1.87;100.00;98807.38;3807759;77;390013;-74
2021/01/05 09:08:20;;;;;;;4.57;3.27;;;;;;;1.91;100.00;98802.84;3807574;75;394112;-76
2021/01/05 09:13:40;;;;;;;1.07;0.97;;;;;;;1.88;100.00;98812.47;3806920;77;392160;-74
2021/01/05 09:19:02;;;;;;;2.60;0.80;;;;;;;1.90;100.00;98810.17;3807898;77;394076;-76
2021/01/05 09:24:24;;;;;;;2.30;2.10;;;;;;;1.91;100.00;98810.98;3807685;76;396087;-76
2021/01/05 09:29:46;;;;;;;2.40;1.33;;;;;;;1.89;100.00;98805.11;3806406;77;389854;-75
2021/01/05 09:35:08;;;;;;;5.37;2.13;;;;;;;1.88;100.00;98804.88;3789260;74;393381;-76
2021/01/05 09:40:30;;;;;;;1.77;1.63;;;;;;;1.89;100.00;98809.98;3761313;75;396363;-77
2021/01/05 09:45:51;;;;;;;0.90;0.70;;;;;;;1.95;100.00;98803.16;3804949;76;392223;-76
2021/01/05 09:51:25;;;;;;;1.80;1.70;;;;;;;1.95;100.00;98806.41;3787951;75;396413;-78
2021/01/05 09:56:52;;;;;;;0.80;0.50;;;;;;;1.95;100.00;98810.48;3745522;77;383809;-76
2021/01/05 10:02:14;;;;;;;1.27;1.17;;;;;;;1.96;100.00;98808.00;3745113;76;391926;-75
2021/01/05 10:07:35;;;;;;;0.93;0.77;;;;;;;2.03;100.00;98804.91;3755970;76;383576;-76
2021/01/05 10:12:56;;;;;;;2.00;1.80;;;;;;;2.10;100.00;98800.23;3807140;75;396340;-76
2021/01/05 10:18:18;;;;;;;0.90;0.50;;;;;;;2.20;100.00;98808.62;3808395;74;383615;-75
2021/01/05 10:23:40;;;;;;;3.10;1.73;;;;;;;2.34;100.00;98795.97;3806812;77;396136;-76
2021/01/05 10:29:02;;;;;;;1.67;1.37;;;;;;;2.38;100.00;98787.54;3807638;74;391867;-77
2021/01/05 10:34:25;;;;;;;2.97;2.20;;;;;;;2.42;100.00;98775.41;3807233;77;396349;-76
2021/01/05 10:39:46;;;;;;;3.07;1.57;;;;;;;2.50;100.00;98775.20;3807218;77;396088;-76
2021/01/05 10:45:09;;;;;;;1.30;0.90;;;;;;;2.55;100.00;98774.95;3754147;75;392110;-76
2021/01/05 10:50:30;;;;;;;0.90;0.60;;;;;;;2.71;100.00;98768.90;3745625;77;383570;-75
2021/01/05 10:55:51;;;;;;;1.17;1.07;;;;;;;2.73;100.00;98773.41;3745272;76;385696;-76
2021/01/05 11:01:13;;;;;;;3.33;3.03;;;;;;;2.73;100.00;98759.83;3771612;76;396349;-75
2021/01/05 11:06:36;;;;;;;4.07;1.57;;;;;;;2.55;100.00;98768.16;3801551;73;396137;-76
2021/01/05 11:12:00;;;;;;;1.43;1.33;;;;;;;2.44;100.00;98757.63;3808184;77;396088;-76
2021/01/05 11:17:21;;;;;;;2.60;1.60;;;;;;;2.41;100.00;98766.49;3770475;77;394033;-76
2021/01/05 11:22:44;;;;;;;2.30;1.70;;;;;;;2.54;100.00;98767.94;3725005;77;396526;-76
2021/01/05 11:28:06;;;;;;;2.00;1.80;;;;;;;2.57;100.00;98761.00;3744519;77;396125;-75
2021/01/05 11:33:27;;;;;;;2.23;2.10;;;;;;;2.68;100.00;98753.30;3770224;77;383777;-76
2021/01/05 11:38:48;;;;;;;1.67;1.07;;;;;;;2.77;100.00;98754.47;3807625;77;391863;-75
2021/01/05 11:44:10;;;;;;;1.83;0.90;;;;;;;2.94;100.00;98751.34;3808054;74;392202;-76
2021/01/05 11:49:31;;;;;;;0.97;0.87;;;;;;;3.09;100.00;98747.77;3807892;74;391914;-75
2021/01/05 11:54:53;;;;;;;1.17;1.07;;;;;;;3.11;100.00;98743.53;3809916;76;383637;-75
2021/01/05 12:00:20;;;;;;;2.43;1.50;;;;;;;3.09;100.00;98738.25;3802226;76;396194;-75
2021/01/05 12:05:43;;;;;;;2.27;0.90;;;;;;;3.11;100.00;98729.95;3799356;76;394226;-75
2021/01/05 12:11:04;;;;;;;3.67;1.43;;;;;;;3.25;100.00;98728.30;3746879;76;394255;-75
2021/01/05 12:16:27;;;;;;;1.67;1.57;;;;;;;3.25;100.00;98724.22;3803205;77;393995;-75
2021/01/05 12:21:48;;;;;;;1.20;1.10;;;;;;;3.33;100.00;98720.48;3808072;74;387805;-75
2021/01/05 12:27:12;;;;;;;1.27;1.13;;;;;;;3.33;100.00;98720.48;3806851;76;385730;-74
2021/01/05 12:32:35;;;;;;;1.40;1.10;;;;;;;3.30;100.00;98716.34;3805064;77;396102;-76
2021/01/05 12:37:56;;;;;;;1.00;0.90;;;;;;;3.24;100.00;98715.05;3805056;75;390013;-75
2021/01/05 12:43:17;;;;;;;3.03;1.10;;;;;;;3.35;100.00;98721.48;3804568;77;393990;-74
2021/01/05 12:48:40;;;;;;;2.83;1.40;;;;;;;3.28;100.00;98712.61;3804657;76;396082;-75
2021/01/05 12:54:01;;;;;;;3.67;2.40;;;;;;;3.25;100.00;98726.14;3804355;75;396100;-75
2021/01/05 12:59:22;;;;;;;4.30;2.73;;;;;;;3.20;100.00;98726.44;3804491;75;396372;-76
2021/01/05 13:04:44;;;;;;;8.50;4.27;;;;;;;3.16;100.00;98717.42;3801162;76;396075;-75
2021/01/05 13:10:06;;;;;;;3.20;2.90;;;;;;;3.31;100.00;98705.69;3751721;77;396436;-75
2021/01/05 13:15:27;;;;;;;3.63;1.03;;;;;;;3.27;100.00;98715.70;3745245;76;389825;-75
2021/01/05 13:20:49;;;;;;;1.40;1.30;;;;;;;3.30;100.00;98709.55;3744900;78;395264;-75
2021/01/05 13:26:10;;;;;;;1.70;1.60;;;;;;;3.26;100.00;98715.48;3744512;77;396325;-74
2021/01/05 13:31:41;;;;;;;3.27;1.57;;;;;;;3.27;100.00;98712.98;3744950;78;394042;-75
2021/01/05 13:37:05;;;;;;;2.50;1.20;;;;;;;3.28;100.00;98711.84;3744753;77;393994;-75
2021/01/05 13:42:26;;;;;;;5.30;1.63;;;;;;;3.38;100.00;98711.25;3708007;78;396085;-74
2021/01/05 13:47:47;;;;;;;4.50;1.23;;;;;;;3.34;100.00;98711.75;3708356;78;396130;-75
2021/01/05 13:53:09;;;;;;;5.50;2.90;;;;;;;3.29;100.00;98713.41;3708161;78;394331;-75
2021/01/05 13:58:30;;;;;;;1.57;1.47;;;;;;;3.04;100.00;98721.66;3708521;79;389048;-75
2021/01/05 14:03:52;;;;;;;2.13;1.87;;;;;;;2.93;100.00;98724.73;3707812;78;396057;-75
2021/01/05 14:09:14;;;;;;;2.70;1.63;;;;;;;2.92;100.00;98729.17;3780317;76;396099;-76
2021/01/05 14:14:35;;;;;;;0.90;0.73;;;;;;;2.83;100.00;98727.23;3809454;75;383781;-76
2021/01/05 14:19:57;;;;;;;1.63;1.00;;;;;;;2.66;100.00;98735.25;3808028;76;394202;-78
2021/01/05 14:25:20;;;;;;;1.43;1.00;;;;;;;2.50;100.00;98743.98;3808774;74;390884;-78
2021/01/05 14:30:45;;;;;;;1.80;1.70;;;;;;;2.30;100.00;98748.95;3808329;77;395026;-80
2021/01/05 14:36:06;;;;;;;1.87;1.50;;;;;;;2.06;100.00;98760.78;3808079;74;390056;-80
2021/01/05 14:41:32;;;;;;;1.93;1.83;;;;;;;1.87;100.00;98764.79;3807358;74;393937;-81
2021/01/05 14:46:59;;;;;;;3.37;2.23;;;;;;;1.70;100.00;98761.61;3807710;77;391914;-81
2021/01/05 14:52:23;;;;;;;12.73;3.70;;;;;;;1.64;100.00;98763.02;3807577;74;396068;-79
2021/01/05 14:57:45;;;;;;;6.40;2.50;;;;;;;1.70;100.00;98765.68;3807811;76;391902;-80
2021/01/05 15:03:06;;;;;;;5.03;2.13;;;;;;;1.70;100.00;98769.75;3807264;77;396077;-78
2021/01/05 15:08:27;;;;;;;5.20;2.30;;;;;;;1.70;100.00;98767.84;3771506;75;396104;-79
2021/01/05 15:13:49;;;;;;;2.60;2.23;;;;;;;1.74;100.00;98764.63;3744767;76;396065;-79
2021/01/05 15:19:12;;;;;;;2.83;1.90;;;;;;;1.81;100.00;98773.53;3744741;76;394524;-78
2021/01/05 15:24:33;;;;;;;2.07;1.87;;;;;;;1.78;100.00;98774.21;3745278;77;388055;-79
2021/01/05 15:29:55;;;;;;;5.50;2.97;;;;;;;1.76;100.00;98777.28;3744849;76;394302;-81
2021/01/05 15:35:16;;;;;;;1.40;1.30;;;;;;;1.77;100.00;98773.44;3745232;76;392364;-80
2021/01/05 15:40:38;;;;;;;2.60;2.17;;;;;;;1.76;100.00;98779.22;3738091;76;394035;-77
2021/01/05 15:45:59;;;;;;;5.40;3.03;;;;;;;1.82;100.00;98775.10;3714341;78;396149;-78
2021/01/05 15:51:21;;;;;;;3.27;2.40;;;;;;;1.76;100.00;98779.22;3735743;78;396072;-77
2021/01/05 15:56:51;;;;;;;3.60;1.97;;;;;;;1.88;100.00;98776.41;3720307;78;392910;-77
2021/01/05 16:02:13;;;;;;;1.57;1.47;;;;;;;1.78;100.00;98775.56;3710924;78;396290;-76
2021/01/05 16:07:34;;;;;;;5.17;3.30;;;;;;;1.84;100.00;98773.61;3711695;78;396251;-78
2021/01/05 16:12:56;;;;;;;16.23;1.80;;;;;;;1.88;100.00;98776.41;3710130;78;396093;-77
2021/01/05 16:18:17;;;;;;;2.50;1.70;;;;;;;1.85;100.00;98777.90;3709093;74;393991;-77
2021/01/05 16:23:40;;;;;;;8.37;4.53;;;;;;;1.93;100.00;98770.74;3706657;79;396085;-77
2021/01/05 16:29:01;;;;;;;1.60;1.50;;;;;;;1.95;100.00;98773.87;3705491;79;396031;-78
2021/01/05 16:34:24;;;;;;;2.33;2.13;;;;;;;1.92;100.00;98775.95;3705768;79;394016;-78
2021/01/05 16:39:45;;;;;;;7.10;2.20;;;;;;;1.97;100.00;98775.67;3694901;78;388788;-76
2021/01/05 16:45:08;;;;;;;8.63;2.33;;;;;;;1.97;100.00;98774.31;3706102;79;393991;-77
2021/01/05 16:50:30;;;;;;;3.60;1.60;;;;;;;2.08;100.00;98774.02;3705587;78;391951;-77
2021/01/05 16:55:53;;;;;;;2.07;1.33;;;;;;;2.03;100.00;98779.13;3706134;79;391956;-77
2021/01/05 17:01:14;;;;;;;11.60;1.60;;;;;;;2.03;100.00;98780.48;3705837;78;398150;-77
2021/01/05 17:06:38;;;;;;;3.37;2.20;;;;;;;2.02;100.00;98777.55;3705554;78;393975;-78
2021/01/05 17:12:00;;;;;;;5.80;1.90;;;;;;;2.09;100.00;98784.50;3706580;77;392154;-77
2021/01/05 17:17:21;;;;;;;3.87;2.87;;;;;;;2.02;100.00;98779.49;3706186;77;392942;-77
2021/01/05 17:22:44;;;;;;;2.07;1.47;;;;;;;2.08;100.00;98779.44;3730624;77;391908;-77
2021/01/05 17:28:07;;;;;;;2.40;1.50;;;;;;;2.02;100.00;98780.85;3706510;77;395022;-77
2021/01/05 17:33:28;;;;;;;1.97;1.83;;;;;;;1.99;100.00;98779.60;3706151;77;392903;-76
2021/01/05 17:38:49;;;;;;;1.13;1.00;;;;;;;1.95;100.00;98771.16;3707085;79;394228;-75
2021/01/05 17:44:10;;;;;;;1.40;1.30;;;;;;;1.93;100.00;98773.45;3707082;77;391987;-75
2021/01/05 17:49:32;;;;;;;0.80;0.50;;;;;;;1.94;100.00;98772.32;3707868;79;383958;-76
2021/01/05 17:54:54;;;;;;;0.80;0.53;;;;;;;1.85;100.00;98770.34;3707856;78;383814;-76
2021/01/05 18:00:20;;;;;;;1.33;0.77;;;;;;;1.73;100.00;98771.22;3707134;77;393995;-75
2021/01/05 18:05:41;;;;;;;1.00;0.80;;;;;;;1.54;100.00;98772.23;3705405;78;392985;-76
2021/01/05 18:11:04;;;;;;;0.80;0.60;;;;;;;1.43;100.00;98777.38;3648161;78;383817;-76
2021/01/05 18:16:28;;;;;;;0.80;0.60;;;;;;;1.37;100.00;98780.13;3648891;77;383833;-77
2021/01/05 18:21:50;;;;;;;1.83;1.67;;;;;;;1.35;100.00;98779.69;3589011;78;396110;-76
2021/01/05 18:27:12;;;;;;;11.63;1.77;;;;;;;1.26;100.00;98775.53;3583885;82;396334;-76
2021/01/05 18:32:33;;;;;;;3.17;1.80;;;;;;;1.24;100.00;98776.47;3583734;82;392941;-77
2021/01/05 18:37:56;;;;;;;2.60;2.13;;;;;;;1.21;100.00;98773.85;3583141;82;396077;-76
2021/01/05 18:43:19;;;;;;;1.30;0.93;;;;;;;1.18;100.00;98768.34;3579882;80;395104;-75
2021/01/05 18:48:40;;;;;;;0.90;0.80;;;;;;;1.21;100.00;98760.31;3493369;82;391891;-75
2021/01/05 18:54:02;;;;;;;1.00;0.90;;;;;;;1.16;100.00;98763.28;3751686;74;392090;-75
2021/01/05 18:59:23;;;;;;;1.10;0.77;;;;;;;1.15;100.00;98760.92;3772328;74;393176;-77
2021/01/05 19:04:44;;;;;;;1.00;0.83;;;;;;;1.12;100.00;98772.44;3761204;76;391895;-78
2021/01/05 19:10:06;;;;;;;0.80;0.60;;;;;;;1.05;100.00;98783.86;3740018;77;383566;-79
2021/01/05 19:15:28;;;;;;;2.00;1.80;;;;;;;0.96;100.00;98771.05;3729653;77;396108;-78
2021/01/05 19:20:50;;;;;;;3.23;1.03;;;;;;;0.96;100.00;98780.53;3786966;77;394987;-76
2021/01/05 19:26:14;;;;;;;1.43;1.33;;;;;;;0.92;100.00;98787.75;3786482;77;396369;-78
2021/01/05 19:31:38;;;;;;;1.47;1.03;;;;;;;0.95;100.00;98790.33;3784674;77;394025;-78
2021/01/05 19:36:59;;;;;;;1.80;1.70;;;;;;;0.85;100.00;98791.61;3728576;77;396031;-78
2021/01/05 19:42:20;;;;;;;1.07;0.97;;;;;;;0.71;100.00;98795.03;3726757;78;393158;-77
2021/01/05 19:47:41;;;;;;;3.90;0.90;;;;;;;0.72;100.00;98795.26;3722269;78;387727;-77
2021/01/05 19:53:03;;;;;;;0.90;0.63;;;;;;;0.64;100.00;98794.83;3723688;78;387803;-77
2021/01/05 19:58:25;;;;;;;3.20;1.70;;;;;;;0.64;100.00;98800.23;3724170;79;394062;-78
2021/01/05 20:03:46;;;;;;;1.17;1.07;;;;;;;0.62;100.00;98799.78;3716158;79;396160;-78
2021/01/05 20:09:07;;;;;;;1.27;1.03;;;;;;;0.55;100.00;98795.52;3665871;78;392911;-77
2021/01/05 20:14:29;;;;;;;0.80;0.50;;;;;;;0.49;100.00;98790.90;3664733;80;383583;-78
2021/01/05 20:19:50;;;;;;;1.90;1.00;;;;;;;0.53;100.00;98780.18;3663682;79;394236;-78
2021/01/05 20:25:12;;;;;;;1.10;1.00;;;;;;;0.51;100.00;98787.30;3715404;79;390014;-78
2021/01/05 20:30:35;;;;;;;1.00;0.70;;;;;;;0.51;100.00;98787.84;3724976;79;383762;-78
2021/01/05 20:35:57;;;;;;;0.97;0.87;;;;;;;0.57;100.00;98791.33;3723473;77;391935;-78
2021/01/05 20:41:18;;;;;;;0.80;0.40;;;;;;;0.73;100.00;98788.72;3725211;79;383539;-77
2021/01/05 20:46:40;;;;;;;1.63;1.53;;;;;;;0.75;100.00;98784.53;3724604;79;384154;-78
2021/01/05 20:52:02;;;;;;;1.03;0.93;;;;;;;0.71;100.00;98786.33;3724687;77;385852;-78
2021/01/05 20:57:23;;;;;;;0.90;0.60;;;;;;;0.78;100.00;98780.58;3723614;79;383578;-77
2021/01/05 21:02:45;;;;;;;0.87;0.70;;;;;;;0.78;100.00;98769.52;3722300;77;383586;-77
2021/01/05 21:08:08;;;;;;;0.80;0.70;;;;;;;0.76;100.00;98771.78;3722267;79;387744;-77
2021/01/05 21:13:29;;;;;;;1.20;0.83;;;;;;;0.79;100.00;98770.52;3721414;79;395237;-78
2021/01/05 21:18:50;;;;;;;0.80;0.60;;;;;;;0.76;100.00;98771.78;3722252;77;383825;-78
2021/01/05 21:24:11;;;;;;;1.07;0.73;;;;;;;0.72;100.00;98774.96;3717720;79;383589;-77
2021/01/05 21:29:32;;;;;;;4.17;2.40;;;;;;;0.78;100.00;98775.16;3720851;79;396074;-78
2021/01/05 21:34:53;;;;;;;1.30;1.07;;;;;;;0.69;100.00;98763.45;3721318;79;396313;-77
2021/01/05 21:40:17;;;;;;;1.20;0.80;;;;;;;0.73;100.00;98768.42;3721314;79;394239;-77
2021/01/05 21:45:38;;;;;;;0.80;0.40;;;;;;;0.64;100.00;98763.12;3721938;79;383845;-77
2021/01/05 21:50:59;;;;;;;1.40;0.80;;;;;;;0.63;100.00;98778.36;3721786;79;383841;-77
2021/01/05 21:56:25;;;;;;;2.03;1.93;;;;;;;0.67;100.00;98773.83;3722341;79;396169;-77
2021/01/05 22:01:46;;;;;;;0.90;0.50;;;;;;;0.64;100.00;98778.01;3727159;78;387765;-78
2021/01/05 22:07:07;;;;;;;1.37;0.93;;;;;;;0.64;100.00;98775.88;3726577;78;393976;-77
2021/01/05 22:12:32;;;;;;;1.23;0.67;;;;;;;0.63;100.00;98767.53;3727042;78;388799;-78
2021/01/05 22:17:54;;;;;;;0.80;0.50;;;;;;;0.68;100.00;98770.80;3726997;78;383766;-77
2021/01/05 22:23:17;;;;;;;1.67;1.40;;;;;;;0.76;100.00;98769.88;3726445;78;394006;-77
2021/01/05 22:28:39;;;;;;;0.80;0.43;;;;;;;0.78;100.00;98765.69;3727439;78;383581;-77
2021/01/05 22:34:00;;;;;;;0.80;0.60;;;;;;;0.82;100.00;98758.44;3727339;78;383856;-78
2021/01/05 22:39:21;;;;;;;0.80;0.40;;;;;;;0.73;100.00;98754.31;3727566;78;383581;-77
2021/01/05 22:44:42;;;;;;;3.37;0.70;;;;;;;0.80;100.00;98747.74;3726963;77;386718;-77
2021/01/05 22:50:04;;;;;;;0.80;0.40;;;;;;;0.75;100.00;98755.31;3727184;78;383770;-77
2021/01/05 22:55:25;;;;;;;1.37;0.60;;;;;;;0.79;100.00;98749.67;3726508;78;389774;-77
2021/01/05 23:00:50;;;;;;;0.87;0.47;;;;;;;0.74;100.00;98751.02;3722437;79;383582;-77
2021/01/05 23:06:12;;;;;;;4.40;1.37;;;;;;;0.68;100.00;98747.80;3721680;77;383620;-77
2021/01/05 23:11:33;;;;;;;3.00;0.90;;;;;;;0.72;100.00;98738.42;3721318;77;394037;-77
2021/01/05 23:16:54;;;;;;;0.80;0.60;;;;;;;0.67;100.00;98740.00;3722184;79;383569;-77
2021/01/05 23:22:15;;;;;;;1.67;1.57;;;;;;;0.80;100.00;98741.78;3721970;79;385696;-77
2021/01/05 23:27:37;;;;;;;0.80;0.50;;;;;;;0.73;100.00;98741.35;3722122;77;383582;-77
2021/01/05 23:32:59;;;;;;;3.93;2.43;;;;;;;0.76;100.00;98733.88;3721707;78;383785;-77
2021/01/05 23:38:23;;;;;;;1.53;1.00;;;;;;;0.83;100.00;98733.52;3723859;79;394284;-77
2021/01/05 23:43:47;;;;;;;0.80;0.70;;;;;;;0.77;100.00;98736.81;3727170;78;383605;-77
2021/01/05 23:49:08;;;;;;;0.80;0.40;;;;;;;0.72;100.00;98736.48;3727458;78;383593;-76
2021/01/05 23:54:29;;;;;;;0.90;0.63;;;;;;;0.72;100.00;98737.06;3727851;78;383574;-76
2021/01/05 23:59:50;;;;;;;0.80;0.50;;;;;;;0.67;100.00;98734.58;3727812;76;383775;-76
